createdAt,value
2023-04-02T00:01:42.068Z,12.8
2023-04-02T00:07:01.480Z,12.81
2023-04-02T00:12:21.048Z,12.8
2023-04-02T00:17:40.180Z,12.8
2023-04-02T00:22:58.919Z,12.8
2023-04-02T00:28:17.864Z,12.8
2023-04-02T00:33:37.293Z,12.79
2023-04-02T00:38:56.341Z,12.8
2023-04-02T00:44:15.562Z,12.79
2023-04-02T00:49:34.861Z,12.79
2023-04-02T00:54:54.089Z,12.78
2023-04-02T01:00:13.348Z,12.78
2023-04-02T01:05:32.537Z,12.78
2023-04-02T01:10:51.311Z,12.77
2023-04-02T01:16:10.062Z,12.77
2023-04-02T01:21:29.774Z,12.78
2023-04-02T01:26:49.322Z,12.77
2023-04-02T01:32:08.331Z,12.76
2023-04-02T01:37:27.264Z,12.76
2023-04-02T01:42:47.014Z,12.76
2023-04-02T01:48:05.928Z,12.76
2023-04-02T01:53:25.235Z,12.76
2023-04-02T01:58:44.759Z,12.76
2023-04-02T02:04:04.186Z,12.75
2023-04-02T02:09:24.004Z,12.74
2023-04-02T02:14:42.572Z,12.75
2023-04-02T02:20:02.171Z,12.74
2023-04-02T02:25:21.760Z,12.74
2023-04-02T02:30:41.103Z,12.74
2023-04-02T02:36:00.199Z,12.73
2023-04-02T02:46:38.840Z,12.74
2023-04-02T02:51:58.022Z,12.73
2023-04-02T02:57:17.372Z,12.72
2023-04-02T03:02:36.809Z,12.72
2023-04-02T03:07:56.026Z,12.72
2023-04-02T03:18:34.914Z,12.72
2023-04-02T03:23:54.243Z,12.71
2023-04-02T03:29:13.598Z,12.71
2023-04-02T03:34:32.690Z,12.71
2023-04-02T03:39:51.938Z,12.71
2023-04-02T03:45:10.946Z,12.71
2023-04-02T03:50:30.061Z,12.71
2023-04-02T03:55:48.733Z,12.7
2023-04-02T04:01:07.816Z,12.7
2023-04-02T04:06:27.422Z,12.7
2023-04-02T04:11:46.784Z,12.7
2023-04-02T04:17:06.011Z,12.71
2023-04-02T04:22:25.287Z,12.7
2023-04-02T04:27:44.102Z,12.7
2023-04-02T04:33:03.288Z,12.7
2023-04-02T04:38:22.518Z,12.7
2023-04-02T04:43:42.303Z,12.7
2023-04-02T04:49:01.196Z,12.69
2023-04-02T04:54:20.251Z,12.69
2023-04-02T04:59:39.794Z,12.69
2023-04-02T05:04:59.483Z,12.7
2023-04-02T05:10:18.484Z,12.69
2023-04-02T05:15:37.710Z,12.68
2023-04-02T05:20:57.223Z,12.69
2023-04-02T05:26:16.083Z,12.69
2023-04-02T05:31:35.906Z,12.7
2023-04-02T05:36:55.478Z,12.7
2023-04-02T05:42:14.628Z,12.72
2023-04-02T05:47:33.563Z,12.72
2023-04-02T05:52:52.982Z,12.73
2023-04-02T05:58:34.327Z,12.74
2023-04-02T06:03:32.489Z,12.75
2023-04-02T06:08:51.615Z,12.76
2023-04-02T06:14:10.900Z,12.78
2023-04-02T06:19:30.140Z,12.81
2023-04-02T06:24:49.380Z,12.84
2023-04-02T06:30:08.755Z,12.87
2023-04-02T06:35:28.283Z,12.89
2023-04-02T06:40:47.260Z,12.91
2023-04-02T06:46:06.611Z,12.95
2023-04-02T06:51:25.870Z,12.98
2023-04-02T06:56:45.383Z,13.03
2023-04-02T07:02:04.979Z,13.06
2023-04-02T07:07:24.530Z,13.13
2023-04-02T07:13:08.442Z,13.18
2023-04-02T07:18:27.410Z,13.23
2023-04-02T07:23:46.269Z,13.3
2023-04-02T07:29:05.405Z,13.42
2023-04-02T07:34:24.585Z,13.54
2023-04-02T07:39:43.799Z,13.64
2023-04-02T07:45:04.685Z,13.68
2023-04-02T07:50:22.176Z,13.7
2023-04-02T07:55:41.367Z,13.69
2023-04-02T08:01:00.203Z,13.63
2023-04-02T08:06:19.863Z,13.59
2023-04-02T08:11:39.596Z,13.51
2023-04-02T08:16:58.714Z,13.4
2023-04-02T08:22:18.238Z,13.37
2023-04-02T08:27:37.822Z,13.38
2023-04-02T08:32:56.915Z,13.33
2023-04-02T08:38:16.017Z,13.38
2023-04-02T08:43:35.361Z,13.45
2023-04-02T08:48:54.137Z,13.55
2023-04-02T08:54:13.498Z,13.62
2023-04-02T08:59:33.066Z,13.63
2023-04-02T09:04:52.788Z,13.62
2023-04-02T09:10:12.187Z,13.61
2023-04-02T09:15:31.543Z,13.63
2023-04-02T09:20:51.281Z,13.7
2023-04-02T09:26:10.768Z,13.78
2023-04-02T09:31:29.718Z,13.86
2023-04-02T09:36:49.153Z,13.99
2023-04-02T09:42:08.155Z,14.11
2023-04-02T09:47:27.357Z,14.21
2023-04-02T09:58:05.744Z,14.34
2023-04-02T10:03:24.597Z,14.36
2023-04-02T10:08:44.249Z,14.36
2023-04-02T10:14:03.801Z,14.36
2023-04-02T10:19:23.317Z,14.28
2023-04-02T10:24:42.505Z,14.06
2023-04-02T10:30:01.343Z,14.09
2023-04-02T10:35:20.163Z,14.37
2023-04-02T10:40:38.997Z,14.36
2023-04-02T10:45:58.505Z,14.35
2023-04-02T10:56:44.382Z,14.36
2023-04-02T11:01:55.911Z,14.37
2023-04-02T11:07:15.160Z,14.36
2023-04-02T11:12:33.472Z,14.37
2023-04-02T11:17:52.809Z,14.36
2023-04-02T11:23:12.398Z,14.37
2023-04-02T11:28:31.294Z,14.37
2023-04-02T11:33:51.171Z,14.37
2023-04-02T11:39:16.894Z,14.36
2023-04-02T11:44:29.568Z,14.38
2023-04-02T11:49:48.454Z,14.37
2023-04-02T11:55:07.428Z,14.37
2023-04-02T12:00:26.957Z,14.38
2023-04-02T12:05:46.248Z,14.38
2023-04-02T12:11:05.028Z,14.38
2023-04-02T12:16:24.741Z,14.36
2023-04-02T12:21:43.793Z,14.37
2023-04-02T12:27:02.603Z,14.37
2023-04-02T12:32:21.815Z,14.4
2023-04-02T12:37:41.103Z,14.38
2023-04-02T12:43:00.331Z,14.38
2023-04-02T12:48:19.490Z,14.39
2023-04-02T12:53:38.636Z,14.39
2023-04-02T12:58:57.781Z,14.38
2023-04-02T13:04:16.772Z,14.4
2023-04-02T13:09:36.219Z,14.39
2023-04-02T13:20:15.200Z,14.4
2023-04-02T13:25:34.346Z,14.38
2023-04-02T13:30:53.600Z,14.4
2023-04-02T13:36:12.962Z,14.39
2023-04-02T13:41:32.575Z,14.4
2023-04-02T13:46:52.055Z,14.4
2023-04-02T13:52:11.468Z,14.38
2023-04-02T13:57:31.029Z,14.38
2023-04-02T14:02:49.104Z,14.39
2023-04-02T14:08:08.366Z,14.38
2023-04-02T14:13:27.973Z,14.37
2023-04-02T14:18:47.011Z,14.38
2023-04-02T14:24:06.539Z,14.38
2023-04-02T14:29:26.409Z,14.38
2023-04-02T14:34:44.958Z,14.38
2023-04-02T14:40:04.162Z,14.39
2023-04-02T14:45:22.742Z,14.39
2023-04-02T14:50:41.864Z,14.38
2023-04-02T14:56:01.512Z,14.38
2023-04-02T15:01:20.411Z,14.4
2023-04-02T15:06:40.505Z,14.37
2023-04-02T15:12:00.233Z,14.38
2023-04-02T15:17:19.060Z,14.38
2023-04-02T15:22:38.953Z,14.38
2023-04-02T15:27:57.401Z,14.39
2023-04-02T15:33:16.344Z,14.39
2023-04-02T15:38:35.037Z,14.39
2023-04-02T15:43:54.951Z,14.39
2023-04-02T15:49:13.598Z,14.37
2023-04-02T15:54:33.294Z,14.37
2023-04-02T16:00:00.174Z,14.38
2023-04-02T16:05:12.610Z,14.02
2023-04-02T16:10:40.693Z,13.47
2023-04-02T16:15:50.250Z,13.42
2023-04-02T16:21:09.449Z,13.39
2023-04-02T16:26:28.827Z,13.32
2023-04-02T16:31:48.041Z,13.27
2023-04-02T16:37:06.832Z,13.22
2023-04-02T16:42:26.492Z,13.18
2023-04-02T16:47:45.248Z,13.16
2023-04-02T16:53:04.354Z,13.12
2023-04-02T16:58:24.107Z,13.06
2023-04-02T17:03:43.699Z,13
2023-04-02T17:09:02.621Z,12.98
2023-04-02T17:14:21.459Z,12.97
2023-04-02T17:19:40.270Z,12.96
2023-04-02T17:24:59.566Z,12.94
2023-04-02T17:30:18.866Z,12.92
2023-04-02T17:35:38.305Z,12.91
2023-04-02T17:40:57.719Z,12.91
2023-04-02T17:46:18.091Z,12.9
2023-04-02T17:51:37.025Z,12.9
2023-04-02T17:56:56.506Z,12.9
2023-04-02T18:02:15.696Z,12.89
2023-04-02T18:07:34.531Z,12.89
2023-04-02T18:12:53.557Z,12.89
2023-04-02T18:18:12.470Z,12.89
2023-04-02T18:23:32.749Z,12.88
2023-04-02T18:28:51.415Z,12.88
2023-04-02T18:34:10.517Z,12.88
2023-04-02T18:44:48.914Z,12.88
2023-04-02T18:50:08.593Z,12.88
2023-04-02T18:55:28.229Z,12.87
2023-04-02T19:00:47.544Z,12.88
2023-04-02T19:06:06.360Z,12.87
2023-04-02T19:11:25.749Z,12.87
2023-04-02T19:16:45.063Z,12.87
2023-04-02T19:22:03.714Z,12.86
2023-04-02T19:27:22.651Z,12.86
2023-04-02T19:32:42.039Z,12.87
2023-04-02T19:38:01.254Z,12.86
2023-04-02T19:43:21.320Z,12.86
2023-04-02T19:48:40.494Z,12.86
2023-04-02T19:53:59.904Z,12.85
2023-04-02T19:59:19.044Z,12.86
2023-04-02T20:04:38.169Z,12.86
2023-04-02T20:09:57.147Z,12.85
2023-04-02T20:15:17.203Z,12.84
2023-04-02T20:20:35.652Z,12.85
2023-04-02T20:25:54.862Z,12.85
2023-04-02T20:31:14.226Z,12.85
2023-04-02T20:36:33.807Z,12.84
2023-04-02T20:41:53.921Z,12.84
2023-04-02T20:47:12.476Z,12.84
2023-04-02T20:52:31.546Z,12.84
2023-04-02T20:57:51.439Z,12.84
2023-04-02T21:03:10.244Z,12.83
2023-04-02T21:08:29.439Z,12.83
2023-04-02T21:13:49.258Z,12.83
2023-04-02T21:19:07.521Z,12.84
2023-04-02T21:24:27.249Z,12.83
2023-04-02T21:35:05.929Z,12.83
2023-04-02T21:40:25.430Z,12.83
2023-04-02T21:45:45.034Z,12.82
2023-04-02T21:51:04.782Z,12.83
2023-04-02T21:56:24.541Z,12.82
2023-04-02T22:01:43.590Z,12.82
2023-04-02T22:07:02.694Z,12.82
2023-04-02T22:12:22.282Z,12.82
2023-04-02T22:17:41.604Z,12.82
2023-04-02T22:23:00.502Z,12.81
2023-04-02T22:28:19.605Z,12.81
2023-04-02T22:33:38.774Z,12.81
2023-04-02T22:38:57.853Z,12.82
2023-04-02T22:44:16.336Z,12.8
2023-04-02T22:49:35.562Z,12.8
2023-04-02T22:54:54.967Z,12.8
2023-04-02T23:00:14.492Z,12.8
2023-04-02T23:05:33.318Z,12.8
2023-04-02T23:10:52.373Z,12.8
2023-04-02T23:16:11.547Z,12.79
2023-04-02T23:21:31.165Z,12.79
2023-04-02T23:26:50.283Z,12.79
2023-04-02T23:32:09.408Z,12.79
2023-04-02T23:37:28.475Z,12.78
2023-04-02T23:42:48.038Z,12.78
2023-04-02T23:48:06.931Z,12.78
2023-04-02T23:53:26.642Z,12.79
2023-04-02T23:58:45.978Z,12.78
